Time;durP1;ratioP1;P1;durP2;ratioP2;P2;SDS_P1;SDS_P2;PMS_P1;PMS_P2;Temp;Humidity;BMP_temperature;BMP_pressure;BME280_temperature;BME280_humidity;BME280_pressure;Samples;Min_cycle;Max_cycle;Signal;HPM_P1;HPM_P2
2022/07/23 00:01:25;;;;;;;;;;;;;;;21.38;52.40;100871.75;5111727;27;19915;-81
2022/07/23 00:03:51;;;;;;;;;;;;;;;21.37;52.68;100878.25;5126088;27;19975;-80
2022/07/23 00:06:19;;;;;;;;;;;;;;;21.39;52.58;100878.88;5142296;27;19924;-81
2022/07/23 00:08:48;;;;;;;;;;;;;;;21.25;52.46;100875.44;5112078;27;19926;-81
2022/07/23 00:11:14;;;;;;;;;;;;;;;21.22;52.18;100875.91;5130561;27;19923;-81
2022/07/23 00:13:39;;;;;;;;;;;;;;;21.16;52.13;100882.25;5126394;27;19919;-80
2022/07/23 00:16:08;;;;;;;;;;;;;;;21.20;52.03;100877.19;5089246;27;20011;-79
2022/07/23 00:18:37;;;;;;;;;;;;;;;21.12;52.24;100875.59;5118891;27;19997;-81
2022/07/23 00:21:02;;;;;;;;;;;;;;;21.13;52.64;100884.63;5120342;27;19918;-82
2022/07/23 00:23:28;;;;;;;;;;;;;;;21.15;52.38;100882.50;5125898;27;20383;-82
2022/07/23 00:25:54;;;;;;;;;;;;;;;21.15;52.34;100877.03;5099789;27;19935;-81
2022/07/23 00:28:20;;;;;;;;;;;;;;;21.09;52.84;100878.75;5109291;28;19916;-81
2022/07/23 00:30:45;;;;;;;;;;;;;;;21.07;52.69;100875.41;5112028;27;19919;-80
2022/07/23 00:33:10;;;;;;;;;;;;;;;21.00;52.63;100874.63;5112910;27;19938;-80
2022/07/23 00:35:40;;;;;;;;;;;;;;;21.08;52.61;100872.47;5113959;27;19950;-80
2022/07/23 00:38:05;;;;;;;;;;;;;;;21.09;52.62;100878.75;5113004;27;19954;-80
2022/07/23 00:40:31;;;;;;;;;;;;;;;21.10;52.68;100877.72;5114233;27;19970;-80
2022/07/23 00:42:56;;;;;;;;;;;;;;;20.96;52.61;100878.91;5110290;28;19997;-80
2022/07/23 00:45:22;;;;;;;;;;;;;;;20.99;52.58;100879.28;5089808;28;20249;-82
2022/07/23 00:47:47;;;;;;;;;;;;;;;20.89;53.25;100880.84;5105700;27;19976;-80
2022/07/23 00:50:12;;;;;;;;;;;;;;;20.78;52.60;100885.97;5132822;27;19958;-80
2022/07/23 00:52:40;;;;;;;;;;;;;;;20.80;52.73;100881.13;5126456;27;20109;-80
2022/07/23 00:55:06;;;;;;;;;;;;;;;20.78;52.54;100877.78;5132304;27;19969;-81
2022/07/23 00:57:31;;;;;;;;;;;;;;;20.84;52.34;100879.63;5113319;27;20022;-81
2022/07/23 00:59:58;;;;;;;;;;;;;;;20.78;52.24;100877.78;5087077;28;19961;-80
2022/07/23 01:02:28;;;;;;;;;;;;;;;20.81;52.30;100876.50;5104143;27;19920;-80
2022/07/23 01:04:53;;;;;;;;;;;;;;;20.89;51.73;100875.41;5113376;27;19923;-81
2022/07/23 01:07:21;;;;;;;;;;;;;;;20.91;52.03;100875.97;5129547;27;19979;-80
2022/07/23 01:09:46;;;;;;;;;;;;;;;20.93;52.31;100874.72;5095046;27;19911;-80
2022/07/23 01:12:12;;;;;;;;;;;;;;;20.96;51.59;100870.69;5111124;27;19941;-80
2022/07/23 01:14:37;;;;;;;;;;;;;;;21.00;51.37;100869.16;5096211;27;19918;-81
2022/07/23 01:17:03;;;;;;;;;;;;;;;21.02;51.03;100870.63;5109512;27;19924;-79
2022/07/23 01:19:30;;;;;;;;;;;;;;;21.01;50.77;100868.13;5112666;27;19922;-80
2022/07/23 01:21:55;;;;;;;;;;;;;;;21.12;50.73;100869.25;5110891;27;19927;-80
2022/07/23 01:24:23;;;;;;;;;;;;;;;21.24;50.35;100867.47;5111570;27;20390;-79
2022/07/23 01:26:49;;;;;;;;;;;;;;;21.24;50.24;100871.03;5113414;27;19922;-80
2022/07/23 01:29:16;;;;;;;;;;;;;;;21.28;50.42;100866.81;5112357;27;19915;-80
2022/07/23 01:31:41;;;;;;;;;;;;;;;21.33;50.29;100863.38;5112082;27;19972;-81
2022/07/23 01:34:07;;;;;;;;;;;;;;;21.35;50.11;100863.13;5112775;28;19918;-80
2022/07/23 01:36:36;;;;;;;;;;;;;;;21.36;50.48;100865.66;5130883;27;20019;-81
2022/07/23 01:39:03;;;;;;;;;;;;;;;21.39;49.88;100858.91;5123384;27;19924;-80
2022/07/23 01:41:29;;;;;;;;;;;;;;;21.32;49.79;100863.59;5128865;27;20006;-80
2022/07/23 01:43:55;;;;;;;;;;;;;;;21.38;49.85;100854.50;5106164;27;20451;-81
2022/07/23 01:46:21;;;;;;;;;;;;;;;21.39;49.79;100850.69;5129066;27;20002;-81
2022/07/23 01:48:47;;;;;;;;;;;;;;;21.34;49.75;100850.53;5120756;28;19922;-82
2022/07/23 01:51:13;;;;;;;;;;;;;;;21.38;49.85;100854.50;5130853;28;19933;-81
2022/07/23 01:53:39;;;;;;;;;;;;;;;21.37;49.99;100844.59;5130129;28;19915;-80
2022/07/23 01:56:04;;;;;;;;;;;;;;;21.33;49.90;100857.06;5093597;28;19912;-82
2022/07/23 01:58:31;;;;;;;;;;;;;;;21.26;50.02;100852.50;5129511;28;19911;-80
2022/07/23 02:00:57;;;;;;;;;;;;;;;21.27;50.10;100853.34;5086143;28;19922;-81
2022/07/23 02:03:23;;;;;;;;;;;;;;;21.14;50.25;100854.34;5125867;28;19942;-81
2022/07/23 02:05:49;;;;;;;;;;;;;;;21.20;50.40;100858.88;5131413;28;19911;-81
2022/07/23 02:08:18;;;;;;;;;;;;;;;21.03;50.45;100861.38;5138419;28;19915;-79
2022/07/23 02:10:45;;;;;;;;;;;;;;;21.01;50.85;100859.94;5142675;28;19915;-81
2022/07/23 02:13:11;;;;;;;;;;;;;;;21.03;50.81;100863.28;5135160;28;19915;-80
2022/07/23 02:15:36;;;;;;;;;;;;;;;20.93;51.00;100869.25;5119889;28;20328;-81
2022/07/23 02:18:03;;;;;;;;;;;;;;;20.87;50.84;100859.22;5085810;28;20436;-81
2022/07/23 02:20:29;;;;;;;;;;;;;;;20.82;51.39;100861.78;5093447;27;19978;-81
2022/07/23 02:22:55;;;;;;;;;;;;;;;20.80;51.51;100864.72;5115242;27;19919;-81
2022/07/23 02:25:20;;;;;;;;;;;;;;;20.80;51.55;100858.44;5112668;28;20325;-80
2022/07/23 02:27:48;;;;;;;;;;;;;;;20.70;51.68;100861.69;5091173;27;19955;-81
2022/07/23 02:30:13;;;;;;;;;;;;;;;20.71;51.86;100863.34;5116276;27;19919;-80
2022/07/23 02:32:40;;;;;;;;;;;;;;;20.74;51.70;100865.63;5116212;27;20303;-80
2022/07/23 02:35:07;;;;;;;;;;;;;;;20.61;51.76;100866.56;5133932;27;20379;-80
2022/07/23 02:37:32;;;;;;;;;;;;;;;20.66;51.96;100860.44;5134203;27;19952;-82
2022/07/23 02:40:00;;;;;;;;;;;;;;;20.61;52.11;100868.47;5131783;27;20048;-80
2022/07/23 02:42:25;;;;;;;;;;;;;;;20.51;52.47;100870.81;5130982;27;19916;-80
2022/07/23 02:44:52;;;;;;;;;;;;;;;20.45;52.34;100878.00;5133193;27;19917;-81
2022/07/23 02:47:17;;;;;;;;;;;;;;;20.52;52.52;100872.50;5131194;27;20039;-80
2022/07/23 02:49:43;;;;;;;;;;;;;;;20.51;52.44;100876.28;5134433;27;19949;-80
2022/07/23 02:52:10;;;;;;;;;;;;;;;20.45;52.58;100876.09;5095137;28;19951;-79
2022/07/23 02:54:37;;;;;;;;;;;;;;;20.41;52.73;100868.56;5115483;27;19984;-81
2022/07/23 02:57:05;;;;;;;;;;;;;;;20.36;52.93;100874.69;5108515;28;19915;-80
2022/07/23 02:59:31;;;;;;;;;;;;;;;20.31;53.32;100871.81;5131136;27;20367;-80
2022/07/23 03:01:59;;;;;;;;;;;;;;;20.41;52.99;100874.88;5107527;27;20059;-79
2022/07/23 03:04:26;;;;;;;;;;;;;;;20.29;52.95;100868.44;5131904;27;19919;-80
2022/07/23 03:06:51;;;;;;;;;;;;;;;20.25;53.37;100880.84;5132350;27;19950;-79
2022/07/23 03:09:18;;;;;;;;;;;;;;;20.24;53.17;100884.66;5115384;27;19962;-80
2022/07/23 03:11:43;;;;;;;;;;;;;;;20.26;52.94;100885.28;5097999;27;20455;-80
2022/07/23 03:14:09;;;;;;;;;;;;;;;20.28;52.82;100896.00;5105844;27;19955;-80
2022/07/23 03:16:36;;;;;;;;;;;;;;;20.21;53.03;100890.56;5132804;27;20014;-81
2022/07/23 03:19:04;;;;;;;;;;;;;;;20.37;52.64;100892.78;5106397;27;19919;-80
2022/07/23 03:21:29;;;;;;;;;;;;;;;20.40;52.54;100895.06;5132907;27;20003;-82
2022/07/23 03:23:54;;;;;;;;;;;;;;;20.42;52.09;100901.13;5100641;27;20002;-81
2022/07/23 03:26:20;;;;;;;;;;;;;;;20.43;52.08;100896.50;5115098;27;19965;-79
2022/07/23 03:28:47;;;;;;;;;;;;;;;20.36;52.44;100896.53;5133224;27;19942;-81
2022/07/23 03:31:17;;;;;;;;;;;;;;;20.48;51.71;100904.03;5114684;27;19943;-81
2022/07/23 03:33:43;;;;;;;;;;;;;;;20.42;52.05;100897.56;5130330;27;19973;-80
2022/07/23 03:36:10;;;;;;;;;;;;;;;20.47;52.35;100894.19;5115110;27;20356;-80
2022/07/23 03:38:36;;;;;;;;;;;;;;;20.43;51.77;100908.25;5114602;27;19926;-80
2022/07/23 03:41:01;;;;;;;;;;;;;;;20.56;51.76;100906.53;5126502;27;19995;-81
2022/07/23 03:43:28;;;;;;;;;;;;;;;20.60;51.80;100905.88;5129579;27;19958;-81
2022/07/23 03:45:55;;;;;;;;;;;;;;;20.58;51.70;100898.94;5109896;27;19916;-81
2022/07/23 03:48:20;;;;;;;;;;;;;;;20.63;51.89;100904.59;5133527;27;20002;-80
2022/07/23 03:50:46;;;;;;;;;;;;;;;20.66;51.62;100904.16;5114090;27;19954;-80
2022/07/23 03:53:11;;;;;;;;;;;;;;;20.74;51.75;100903.88;5131894;27;20344;-80
2022/07/23 03:55:36;;;;;;;;;;;;;;;20.76;51.68;100909.94;5135540;27;19911;-79
2022/07/23 03:58:03;;;;;;;;;;;;;;;20.75;51.80;100899.25;5141610;27;19922;-82
2022/07/23 04:00:29;;;;;;;;;;;;;;;20.78;51.85;100907.00;5118567;27;19954;-80
2022/07/23 04:02:55;;;;;;;;;;;;;;;20.80;51.67;100905.72;5143618;27;19972;-80
2022/07/23 04:05:21;;;;;;;;;;;;;;;20.82;51.50;100898.13;5126008;27;19919;-80
2022/07/23 04:07:48;;;;;;;;;;;;;;;20.95;51.21;100904.53;5105862;28;19973;-80
2022/07/23 04:10:13;;;;;;;;;;;;;;;21.06;50.78;100901.09;5138413;27;19918;-80
2022/07/23 04:12:38;;;;;;;;;;;;;;;21.16;50.45;100912.31;5137334;27;20468;-81
2022/07/23 04:15:04;;;;;;;;;;;;;;;21.37;49.85;100907.50;5132008;27;19916;-82
2022/07/23 04:17:30;;;;;;;;;;;;;;;21.54;49.32;100908.63;5121967;27;19924;-80
2022/07/23 04:19:56;;;;;;;;;;;;;;;21.65;48.97;100910.59;5140538;27;19972;-79
2022/07/23 04:22:21;;;;;;;;;;;;;;;21.81;48.36;100909.13;5142960;27;19911;-79
2022/07/23 04:24:46;;;;;;;;;;;;;;;21.95;48.25;100909.81;5144680;27;19915;-79
2022/07/23 04:27:13;;;;;;;;;;;;;;;22.16;47.90;100911.22;5143384;27;20014;-80
2022/07/23 04:29:39;;;;;;;;;;;;;;;22.31;47.46;100908.09;5107418;27;20442;-80
2022/07/23 04:32:07;;;;;;;;;;;;;;;22.53;46.79;100906.50;5140705;27;19919;-79
2022/07/23 04:34:32;;;;;;;;;;;;;;;22.67;47.20;100906.28;5095795;28;19915;-80
2022/07/23 04:37:00;;;;;;;;;;;;;;;22.97;46.41;100907.06;5106986;27;19918;-83
2022/07/23 04:39:27;;;;;;;;;;;;;;;23.29;45.40;100909.44;5136358;27;19958;-80
2022/07/23 04:41:56;;;;;;;;;;;;;;;23.50;45.55;100909.91;5122743;27;19998;-82
2022/07/23 04:44:23;;;;;;;;;;;;;;;23.76;44.99;100909.44;5121890;27;20424;-80
2022/07/23 04:46:50;;;;;;;;;;;;;;;24.02;44.12;100907.19;5123350;27;19915;-80
2022/07/23 04:49:16;;;;;;;;;;;;;;;24.26;43.29;100907.13;5135498;27;19922;-80
2022/07/23 04:51:42;;;;;;;;;;;;;;;24.52;42.98;100917.53;5132213;27;19919;-80
2022/07/23 04:54:10;;;;;;;;;;;;;;;24.77;42.08;100908.91;5129850;27;19911;-81
2022/07/23 04:56:43;;;;;;;;;;;;;;;24.91;41.80;100917.66;5112107;27;20007;-80
2022/07/23 04:59:11;;;;;;;;;;;;;;;25.04;41.44;100917.28;5103047;28;19916;-80
2022/07/23 05:01:36;;;;;;;;;;;;;;;25.37;40.29;100915.59;5112678;27;19920;-81
2022/07/23 05:04:04;;;;;;;;;;;;;;;25.59;40.28;100917.56;5088722;28;19919;-80
2022/07/23 05:06:29;;;;;;;;;;;;;;;25.82;39.70;100920.06;5094493;27;20014;-81
2022/07/23 05:08:55;;;;;;;;;;;;;;;26.00;39.30;100920.88;5096499;27;20006;-81
2022/07/23 05:11:20;;;;;;;;;;;;;;;26.21;38.45;100922.75;5115758;27;19982;-81
2022/07/23 05:13:45;;;;;;;;;;;;;;;26.42;38.57;100922.97;5128346;27;19915;-81
2022/07/23 05:16:13;;;;;;;;;;;;;;;26.70;38.24;100917.22;5113811;27;20309;-80
2022/07/23 05:18:39;;;;;;;;;;;;;;;26.93;37.71;100926.22;5110750;27;19916;-80
2022/07/23 05:21:04;;;;;;;;;;;;;;;26.85;37.96;100921.19;5112572;27;19937;-80
2022/07/23 05:23:31;;;;;;;;;;;;;;;27.10;37.81;100913.09;5129346;27;19958;-80
2022/07/23 05:25:57;;;;;;;;;;;;;;;27.32;37.81;100917.69;5112728;27;19911;-81
2022/07/23 05:28:26;;;;;;;;;;;;;;;27.40;37.82;100919.97;5112442;27;19951;-80
2022/07/23 05:30:54;;;;;;;;;;;;;;;27.58;37.62;100915.91;5131145;27;20006;-80
2022/07/23 05:33:19;;;;;;;;;;;;;;;27.71;37.40;100918.19;5105218;27;19927;-81
2022/07/23 05:35:45;;;;;;;;;;;;;;;27.81;37.70;100917.38;5130990;27;19918;-81
2022/07/23 05:38:10;;;;;;;;;;;;;;;28.01;36.81;100919.44;5104578;28;19979;-77
2022/07/23 05:40:35;;;;;;;;;;;;;;;28.14;37.16;100916.19;5120561;27;20002;-81
2022/07/23 05:43:01;;;;;;;;;;;;;;;28.47;36.17;100910.44;5129786;27;19958;-81
2022/07/23 05:45:26;;;;;;;;;;;;;;;28.59;35.80;100911.03;5119623;27;19916;-82
2022/07/23 05:47:52;;;;;;;;;;;;;;;28.86;35.97;100907.97;5124365;27;19915;-82
2022/07/23 05:50:17;;;;;;;;;;;;;;;29.09;35.12;100903.84;5113481;28;19972;-82
2022/07/23 05:52:43;;;;;;;;;;;;;;;29.30;35.06;100910.16;5110353;28;19915;-81
2022/07/23 05:55:12;;;;;;;;;;;;;;;29.29;34.94;100907.66;5108533;27;19916;-81
2022/07/23 05:57:37;;;;;;;;;;;;;;;29.52;34.74;100907.06;5136142;27;20356;-79
2022/07/23 06:00:03;;;;;;;;;;;;;;;29.82;34.28;100914.44;5115436;27;19926;-80
2022/07/23 06:02:29;;;;;;;;;;;;;;;30.02;33.49;100905.22;5108717;27;19916;-80
2022/07/23 06:04:54;;;;;;;;;;;;;;;30.34;33.17;100912.25;5124464;27;20366;-79
2022/07/23 06:07:20;;;;;;;;;;;;;;;30.44;32.87;100912.19;5108643;27;20319;-80
2022/07/23 06:09:46;;;;;;;;;;;;;;;30.64;32.68;100908.44;5129464;27;20062;-80
2022/07/23 06:12:12;;;;;;;;;;;;;;;30.97;32.35;100914.28;5113728;27;19916;-80
2022/07/23 06:14:40;;;;;;;;;;;;;;;31.14;32.11;100913.88;5131708;27;20283;-80
2022/07/23 06:17:11;;;;;;;;;;;;;;;31.29;32.00;100910.91;5131143;27;20367;-79
2022/07/23 06:19:36;;;;;;;;;;;;;;;31.38;31.76;100907.50;5130010;27;19933;-80
2022/07/23 06:22:05;;;;;;;;;;;;;;;31.53;31.66;100910.13;5109367;27;19922;-79
2022/07/23 06:24:30;;;;;;;;;;;;;;;31.68;31.28;100912.75;5113677;27;20026;-82
2022/07/23 06:26:56;;;;;;;;;;;;;;;31.78;31.28;100910.97;5127941;27;19951;-80
2022/07/23 06:29:25;;;;;;;;;;;;;;;31.93;30.90;100913.53;5129348;27;19927;-82
2022/07/23 06:31:50;;;;;;;;;;;;;;;32.20;31.14;100906.53;5129450;27;19915;-82
2022/07/23 06:34:16;;;;;;;;;;;;;;;32.48;30.62;100913.88;5114155;27;20023;-82
2022/07/23 06:36:42;;;;;;;;;;;;;;;32.67;30.51;100915.84;5129980;27;20326;-84
2022/07/23 06:39:08;;;;;;;;;;;;;;;32.75;30.45;100913.16;5110063;27;20311;-82
2022/07/23 06:41:35;;;;;;;;;;;;;;;33.05;29.70;100915.78;5129758;27;20018;-80
2022/07/23 06:44:01;;;;;;;;;;;;;;;33.24;29.74;100913.72;5130792;27;19916;-79
2022/07/23 06:46:26;;;;;;;;;;;;;;;33.46;29.32;100914.97;5100342;27;19915;-81
2022/07/23 06:48:52;;;;;;;;;;;;;;;33.49;29.61;100912.41;5129255;27;19915;-80
2022/07/23 06:51:20;;;;;;;;;;;;;;;33.64;28.95;100923.28;5122660;27;19998;-88
2022/07/23 06:53:51;;;;;;;;;;;;;;;33.37;27.62;100912.94;5108077;27;19942;-82
2022/07/23 06:56:18;;;;;;;;;;;;;;;33.36;28.57;100911.25;5111853;27;20336;-80
2022/07/23 06:58:45;;;;;;;;;;;;;;;33.64;28.23;100922.44;5128578;27;19924;-80
2022/07/23 07:01:11;;;;;;;;;;;;;;;33.77;27.16;100926.38;5125906;27;19926;-80
2022/07/23 07:03:38;;;;;;;;;;;;;;;34.12;26.90;100924.81;5110086;27;19915;-80
2022/07/23 07:06:05;;;;;;;;;;;;;;;34.44;26.92;100926.59;5114322;27;21373;-80
2022/07/23 07:08:32;;;;;;;;;;;;;;;34.51;26.14;100922.50;5128705;27;19935;-80
2022/07/23 07:11:00;;;;;;;;;;;;;;;34.62;25.75;100924.75;5133478;27;19915;-80
2022/07/23 07:13:28;;;;;;;;;;;;;;;34.59;24.95;100924.56;5113959;27;19944;-81
2022/07/23 07:16:15;;;;;;;;;;;;;;;34.70;24.41;100925.16;5115113;27;19919;-80
2022/07/23 07:18:41;;;;;;;;;;;;;;;34.91;24.20;100923.50;5130352;27;19919;-80
2022/07/23 07:21:07;;;;;;;;;;;;;;;35.12;23.98;100921.00;5133772;27;19957;-80
2022/07/23 07:23:34;;;;;;;;;;;;;;;35.38;24.24;100917.50;5112557;27;19915;-81
2022/07/23 07:26:00;;;;;;;;;;;;;;;35.57;23.72;100908.88;5115189;27;19927;-78
2022/07/23 07:28:25;;;;;;;;;;;;;;;35.48;23.49;100920.03;5112924;27;19999;-80
2022/07/23 07:30:53;;;;;;;;;;;;;;;35.58;23.58;100916.13;5133549;27;19912;-81
2022/07/23 07:33:21;;;;;;;;;;;;;;;35.69;23.67;100920.31;5128315;27;19919;-81
2022/07/23 07:35:49;;;;;;;;;;;;;;;36.06;23.32;100920.88;5115310;27;19919;-82
2022/07/23 07:38:16;;;;;;;;;;;;;;;35.95;22.79;100925.13;5133481;27;19955;-81
2022/07/23 07:40:41;;;;;;;;;;;;;;;36.12;23.43;100923.19;5126466;27;19923;-82
2022/07/23 07:43:06;;;;;;;;;;;;;;;36.35;22.95;100923.06;5111828;27;19964;-82
2022/07/23 07:45:33;;;;;;;;;;;;;;;36.50;22.32;100918.94;5095019;27;19955;-85
2022/07/23 07:47:59;;;;;;;;;;;;;;;36.54;22.45;100919.91;5132395;27;19923;-83
2022/07/23 07:50:25;;;;;;;;;;;;;;;36.51;22.82;100909.38;5128257;27;20267;-85
2022/07/23 07:52:55;;;;;;;;;;;;;;;36.50;23.70;100914.19;5120770;27;19915;-80
2022/07/23 07:55:20;;;;;;;;;;;;;;;36.65;23.51;100914.84;5109254;27;19915;-83
2022/07/23 07:57:46;;;;;;;;;;;;;;;36.60;26.29;100913.03;5109694;27;20272;-80
2022/07/23 08:00:11;;;;;;;;;;;;;;;36.06;25.65;100915.28;5108184;27;20458;-83
2022/07/23 08:02:41;;;;;;;;;;;;;;;36.04;26.57;100914.78;5105625;27;20399;-84
2022/07/23 08:05:06;;;;;;;;;;;;;;;35.90;25.85;100915.75;5131264;27;20010;-85
2022/07/23 08:07:32;;;;;;;;;;;;;;;36.02;25.50;100919.88;5131569;27;20006;-84
2022/07/23 08:09:58;;;;;;;;;;;;;;;35.96;27.40;100921.16;5112211;27;19953;-81
2022/07/23 08:12:24;;;;;;;;;;;;;;;36.18;28.24;100925.84;5128445;27;19927;-82
2022/07/23 08:14:50;;;;;;;;;;;;;;;35.76;27.34;100923.44;5123935;27;19923;-82
2022/07/23 08:17:16;;;;;;;;;;;;;;;35.45;28.47;100920.66;5126896;27;19954;-81
2022/07/23 08:19:41;;;;;;;;;;;;;;;35.04;29.14;100924.56;5132903;27;19926;-84
2022/07/23 08:22:15;;;;;;;;;;;;;;;34.66;28.59;100928.56;5105967;27;20394;-84
2022/07/23 08:24:41;;;;;;;;;;;;;;;34.74;28.72;100921.41;5126953;27;19931;-84
2022/07/23 08:27:07;;;;;;;;;;;;;;;34.86;28.05;100918.03;5091402;27;19939;-83
2022/07/23 08:29:34;;;;;;;;;;;;;;;35.14;28.21;100917.91;5094747;27;19927;-82
2022/07/23 08:32:02;;;;;;;;;;;;;;;35.19;26.45;100920.53;5110954;27;19927;-81
2022/07/23 08:34:33;;;;;;;;;;;;;;;35.49;27.02;100916.06;5126144;27;20026;-83
2022/07/23 08:36:58;;;;;;;;;;;;;;;35.73;25.54;100918.50;5110882;27;20028;-82
2022/07/23 08:39:28;;;;;;;;;;;;;;;35.84;25.40;100925.41;5108930;27;19916;-82
2022/07/23 08:41:53;;;;;;;;;;;;;;;35.88;25.53;100922.81;5131417;27;20023;-82
2022/07/23 08:44:20;;;;;;;;;;;;;;;36.51;23.78;100921.41;5128699;27;20343;-85
2022/07/23 08:46:47;;;;;;;;;;;;;;;36.46;23.82;100923.56;5129202;27;19915;-83
2022/07/23 08:49:12;;;;;;;;;;;;;;;36.90;22.70;100930.78;5130303;27;19927;-85
2022/07/23 08:51:38;;;;;;;;;;;;;;;37.08;21.68;100927.97;5111251;27;19923;-82
2022/07/23 08:54:04;;;;;;;;;;;;;;;37.68;21.65;100931.72;5094619;28;19955;-84
2022/07/23 08:56:32;;;;;;;;;;;;;;;38.00;21.14;100931.03;5115837;27;19926;-82
2022/07/23 08:58:58;;;;;;;;;;;;;;;38.24;20.44;100929.56;5138695;27;19961;-81
2022/07/23 09:01:28;;;;;;;;;;;;;;;38.03;19.93;100935.16;5131087;27;19922;-85
2022/07/23 09:03:53;;;;;;;;;;;;;;;38.07;20.31;100935.28;5113186;27;20427;-84
2022/07/23 09:06:18;;;;;;;;;;;;;;;38.72;19.87;100933.78;5108493;28;19912;-83
2022/07/23 09:08:46;;;;;;;;;;;;;;;38.72;19.82;100939.38;5113304;27;19915;-83
2022/07/23 09:11:14;;;;;;;;;;;;;;;38.41;19.96;100934.19;5130611;27;20024;-84
2022/07/23 09:13:53;;;;;;;;;;;;;;;38.71;19.75;100939.75;5101811;27;20388;-83
2022/07/23 09:16:19;;;;;;;;;;;;;;;39.33;18.68;100937.94;5089004;28;19923;-82
2022/07/23 09:18:49;;;;;;;;;;;;;;;39.91;18.10;100935.06;5101747;28;19919;-82
2022/07/23 09:21:18;;;;;;;;;;;;;;;39.70;18.27;100935.97;5090669;28;19919;-83
2022/07/23 09:23:47;;;;;;;;;;;;;;;39.50;18.50;100934.09;5105538;28;19919;-84
2022/07/23 09:26:23;;;;;;;;;;;;;;;40.89;16.99;100940.41;5100932;28;19915;-84
2022/07/23 09:29:00;;;;;;;;;;;;;;;40.16;17.38;100930.22;5106305;28;19916;-82
2022/07/23 09:31:32;;;;;;;;;;;;;;;40.05;17.21;100932.69;5112163;28;20018;-82
2022/07/23 09:34:10;;;;;;;;;;;;;;;39.59;17.31;100938.44;5108021;28;19912;-80
2022/07/23 09:36:36;;;;;;;;;;;;;;;39.88;17.45;100933.78;5101005;28;20350;-82
2022/07/23 09:39:02;;;;;;;;;;;;;;;40.24;17.20;100941.31;5109788;28;20016;-82
2022/07/23 09:41:35;;;;;;;;;;;;;;;41.11;16.36;100941.78;5111430;28;19919;-82
2022/07/23 09:44:08;;;;;;;;;;;;;;;42.04;15.48;100934.88;5107343;28;19915;-82
2022/07/23 09:46:39;;;;;;;;;;;;;;;42.36;15.40;100935.59;5111482;28;19911;-83
2022/07/23 09:49:26;;;;;;;;;;;;;;;42.18;15.14;100943.66;5104637;28;19920;-82
2022/07/23 09:51:51;;;;;;;;;;;;;;;42.29;15.40;100938.25;5114150;28;19912;-85
2022/07/23 09:54:40;;;;;;;;;;;;;;;42.56;15.68;100948.53;5108543;28;20372;-83
2022/07/23 09:57:14;;;;;;;;;;;;;;;42.88;14.91;100939.09;5100192;28;19916;-81
2022/07/23 09:59:42;;;;;;;;;;;;;;;42.42;14.86;100933.31;5100885;28;19912;-81
2022/07/23 10:02:09;;;;;;;;;;;;;;;42.25;15.75;100931.72;5112290;28;19908;-84
2022/07/23 10:04:37;;;;;;;;;;;;;;;43.07;15.19;100929.75;5086607;28;20316;-82
2022/07/23 10:07:06;;;;;;;;;;;;;;;43.07;14.78;100929.75;5082390;28;19920;-84
2022/07/23 10:09:34;;;;;;;;;;;;;;;42.53;15.17;100923.03;5094967;28;19919;-82
2022/07/23 10:14:44;;;;;;;;;;;;;;;43.17;15.83;100927.09;5097437;28;20370;-80
2022/07/23 10:17:10;;;;;;;;;;;;;;;41.93;17.15;100928.94;5109556;28;19919;-83
2022/07/23 10:19:37;;;;;;;;;;;;;;;42.23;17.15;100931.25;5103321;28;19965;-81
2022/07/23 10:22:09;;;;;;;;;;;;;;;40.65;18.88;100932.88;5113093;28;19915;-86
2022/07/23 10:24:48;;;;;;;;;;;;;;;40.52;19.70;100920.84;5105957;28;19916;-86
2022/07/23 10:27:17;;;;;;;;;;;;;;;39.78;20.89;100920.13;5108065;28;20411;-85
2022/07/23 10:29:48;;;;;;;;;;;;;;;39.85;21.38;100928.84;5109835;28;19927;-85
2022/07/23 10:32:16;;;;;;;;;;;;;;;40.66;20.73;100928.88;5094695;28;19923;-86
2022/07/23 10:35:00;;;;;;;;;;;;;;;39.94;22.10;100926.72;5115071;28;19955;-88
2022/07/23 10:37:36;;;;;;;;;;;;;;;39.43;23.16;100923.44;5108343;28;19965;-85
2022/07/23 10:40:28;;;;;;;;;;;;;;;40.06;22.59;100923.06;5107886;28;19950;-83
2022/07/23 10:42:55;;;;;;;;;;;;;;;39.78;22.96;100922.94;5110402;28;19915;-85
2022/07/23 10:45:23;;;;;;;;;;;;;;;39.58;23.28;100913.47;5111419;28;20102;-87
2022/07/23 10:47:51;;;;;;;;;;;;;;;39.77;23.33;100912.88;5113326;28;19916;-81
2022/07/23 10:50:24;;;;;;;;;;;;;;;40.20;23.31;100905.78;5111255;28;20308;-85
2022/07/23 10:53:15;;;;;;;;;;;;;;;39.67;24.26;100906.56;5110237;28;19974;-85
2022/07/23 10:55:49;;;;;;;;;;;;;;;39.32;24.34;100902.56;5110301;28;19916;-83
2022/07/23 10:58:24;;;;;;;;;;;;;;;38.44;25.49;100906.22;5110028;28;20422;-83
2022/07/23 11:00:58;;;;;;;;;;;;;;;37.07;27.15;100927.16;5103083;28;19926;-85
2022/07/23 11:03:36;;;;;;;;;;;;;;;36.66;28.46;100913.69;5104346;28;19998;-84
2022/07/23 11:06:04;;;;;;;;;;;;;;;36.55;28.01;100907.59;5105265;28;20367;-87
2022/07/23 11:08:31;;;;;;;;;;;;;;;35.91;29.34;100908.16;5113722;28;19938;-85
2022/07/23 11:11:02;;;;;;;;;;;;;;;35.85;29.37;100910.31;5112158;28;19990;-85
2022/07/23 11:13:31;;;;;;;;;;;;;;;35.66;29.46;100906.94;5119811;28;19920;-91
2022/07/23 11:16:06;;;;;;;;;;;;;;;35.21;30.85;100907.09;5114293;28;19912;-87
2022/07/23 11:18:43;;;;;;;;;;;;;;;34.97;30.10;100897.06;5118932;27;19919;-85
2022/07/23 11:21:30;;;;;;;;;;;;;;;34.31;30.34;100907.91;5108452;27;19915;-83
2022/07/23 11:24:13;;;;;;;;;;;;;;;33.89;32.19;100900.75;5114822;27;19968;-82
2022/07/23 11:26:50;;;;;;;;;;;;;;;33.88;32.78;100907.47;5104026;27;19934;-79
2022/07/23 11:29:25;;;;;;;;;;;;;;;33.24;32.79;100897.00;5116260;27;19922;-81
2022/07/23 11:32:01;;;;;;;;;;;;;;;33.18;33.14;100903.84;5099051;28;19969;-83
2022/07/23 11:34:38;;;;;;;;;;;;;;;32.50;35.26;100900.53;5114437;27;19967;-82
2022/07/23 11:37:10;;;;;;;;;;;;;;;32.47;35.27;100912.19;5123198;27;20459;-82
2022/07/23 11:39:37;;;;;;;;;;;;;;;32.51;36.20;100904.94;5127936;27;20014;-83
2022/07/23 11:42:08;;;;;;;;;;;;;;;32.41;36.00;100912.59;5131162;27;19912;-86
2022/07/23 11:44:55;;;;;;;;;;;;;;;31.72;37.16;100919.34;5118268;27;19911;-89
2022/07/23 11:47:28;;;;;;;;;;;;;;;31.48;36.71;100910.19;5126054;27;20406;-82
2022/07/23 11:49:58;;;;;;;;;;;;;;;31.78;38.17;100905.41;5125395;27;19927;-83
2022/07/23 11:52:30;;;;;;;;;;;;;;;31.72;38.43;100907.41;5112944;27;19915;-86
2022/07/23 11:55:00;;;;;;;;;;;;;;;31.64;38.08;100905.28;5127480;27;19911;-82
2022/07/23 11:57:28;;;;;;;;;;;;;;;32.24;37.37;100902.00;5113324;27;19922;-86
2022/07/23 11:59:56;;;;;;;;;;;;;;;31.91;37.74;100911.06;5114163;27;19933;-82
2022/07/23 12:02:24;;;;;;;;;;;;;;;31.52;38.85;100906.53;5117153;27;19962;-86
2022/07/23 12:04:51;;;;;;;;;;;;;;;31.40;38.31;100899.69;5123690;27;19949;-84
2022/07/23 12:07:32;;;;;;;;;;;;;;;31.38;39.36;100902.78;5114972;27;20333;-83
2022/07/23 12:10:00;;;;;;;;;;;;;;;31.89;38.05;100904.13;5133847;27;20324;-84
2022/07/23 12:12:25;;;;;;;;;;;;;;;32.13;38.92;100896.59;5130989;27;19994;-83
2022/07/23 12:15:18;;;;;;;;;;;;;;;31.98;38.18;100907.91;5098939;27;20002;-83
2022/07/23 12:17:47;;;;;;;;;;;;;;;31.77;38.35;100912.88;5120617;27;19916;-84
2022/07/23 12:20:13;;;;;;;;;;;;;;;31.53;39.08;100901.78;5115048;27;19915;-87
2022/07/23 12:22:43;;;;;;;;;;;;;;;31.84;39.20;100904.19;5108162;27;19912;-89
2022/07/23 12:25:35;;;;;;;;;;;;;;;32.11;40.55;100901.63;5124896;27;19919;-89
2022/07/23 12:28:02;;;;;;;;;;;;;;;31.72;42.33;100904.63;5123960;27;20320;-84
2022/07/23 12:30:37;;;;;;;;;;;;;;;31.84;42.26;100899.44;5116777;27;19923;-87
2022/07/23 12:33:03;;;;;;;;;;;;;;;31.68;42.17;100901.63;5111800;27;19915;-83
2022/07/23 12:35:33;;;;;;;;;;;;;;;31.98;41.46;100905.13;5094839;28;19922;-83
2022/07/23 12:38:03;;;;;;;;;;;;;;;31.91;41.55;100904.66;5134104;27;19916;-80
2022/07/23 12:40:36;;;;;;;;;;;;;;;31.99;41.54;100895.69;5093191;28;19973;-84
2022/07/23 12:43:08;;;;;;;;;;;;;;;32.33;39.49;100892.66;5099702;28;19923;-84